Kayenta, Arizona
Current Conditions -  °F | °C
As of 11:55 AM on Friday 21 Nov 2014 (Local Time) from KBDG Reporting Station
Clear Clear  
Wind Chill: 45°   Ceiling: Unl
Heat Index: 47°   Visibility: 10mi
Dew Point: 16°   Wind: 6mph
Humidity: 29%   Direction: 160°SSE
Pressure: 30.13"   Gusts: NA
Location:  36.73°N, 110.26°W
Report Text: KBDG 211855Z AUTO 16005KT 10SM CLR 09/M09 A3013 RMK AO1 T00851089
Loading
Personal Weather Stations






























Interactive Weather Map New forecast layout! Learn more

10-Day Weather Forecast

Advertisements
Track Severe Weather on mobile